sensor_id;sensor_type;location;lat;lon;timestamp;pressure;altitude;pressure_sealevel;temperature;humidity
41886;BME280;27567;43.084;25.616;2022-10-16T00:00:17;98986.09;;;6.67;100.00
41886;BME280;27567;43.084;25.616;2022-10-16T00:02:42;98987.41;;;6.62;100.00
41886;BME280;27567;43.084;25.616;2022-10-16T00:05:08;98982.75;;;6.56;100.00
41886;BME280;27567;43.084;25.616;2022-10-16T00:07:33;98994.38;;;6.55;100.00
41886;BME280;27567;43.084;25.616;2022-10-16T00:09:58;98992.66;;;6.46;100.00
41886;BME280;27567;43.084;25.616;2022-10-16T00:12:24;98992.47;;;6.39;100.00
41886;BME280;27567;43.084;25.616;2022-10-16T00:14:49;98995.72;;;6.25;100.00
41886;BME280;27567;43.084;25.616;2022-10-16T00:17:33;98998.53;;;6.23;100.00
41886;BME280;27567;43.084;25.616;2022-10-16T00:20:17;98991.59;;;6.30;100.00
41886;BME280;27567;43.084;25.616;2022-10-16T00:23:01;99005.72;;;6.23;100.00
41886;BME280;27567;43.084;25.616;2022-10-16T00:25:54;99012.31;;;6.19;100.00
41886;BME280;27567;43.084;25.616;2022-10-16T00:28:39;99013.22;;;6.27;100.00
41886;BME280;27567;43.084;25.616;2022-10-16T00:31:24;99010.38;;;6.29;100.00
41886;BME280;27567;43.084;25.616;2022-10-16T00:34:08;99011.84;;;6.23;100.00
41886;BME280;27567;43.084;25.616;2022-10-16T00:36:52;99023.28;;;6.15;100.00
41886;BME280;27567;43.084;25.616;2022-10-16T00:39:36;99021.13;;;6.19;100.00
41886;BME280;27567;43.084;25.616;2022-10-16T00:42:20;99023.91;;;6.09;100.00
41886;BME280;27567;43.084;25.616;2022-10-16T00:45:04;99018.94;;;6.14;100.00
41886;BME280;27567;43.084;25.616;2022-10-16T00:47:50;99021.84;;;6.03;100.00
41886;BME280;27567;43.084;25.616;2022-10-16T00:50:35;99027.56;;;5.90;100.00
41886;BME280;27567;43.084;25.616;2022-10-16T00:53:19;99032.81;;;5.82;100.00
41886;BME280;27567;43.084;25.616;2022-10-16T00:56:05;99031.22;;;5.89;100.00
41886;BME280;27567;43.084;25.616;2022-10-16T00:58:49;99041.66;;;6.00;100.00
41886;BME280;27567;43.084;25.616;2022-10-16T01:01:33;99034.09;;;5.96;100.00
41886;BME280;27567;43.084;25.616;2022-10-16T01:04:18;99037.38;;;5.90;100.00
41886;BME280;27567;43.084;25.616;2022-10-16T01:10:41;99036.84;;;5.86;100.00
41886;BME280;27567;43.084;25.616;2022-10-16T01:13:41;99044.53;;;5.89;100.00
41886;BME280;27567;43.084;25.616;2022-10-16T01:22:10;99049.31;;;5.85;100.00
41886;BME280;27567;43.084;25.616;2022-10-16T01:24:59;99054.41;;;5.79;100.00
41886;BME280;27567;43.084;25.616;2022-10-16T01:27:46;99054.13;;;5.64;100.00
41886;BME280;27567;43.084;25.616;2022-10-16T01:30:32;99052.75;;;5.60;100.00
41886;BME280;27567;43.084;25.616;2022-10-16T01:33:21;99052.75;;;5.60;100.00
41886;BME280;27567;43.084;25.616;2022-10-16T01:36:14;99053.66;;;5.68;100.00
41886;BME280;27567;43.084;25.616;2022-10-16T01:39:01;99057.28;;;5.67;100.00
41886;BME280;27567;43.084;25.616;2022-10-16T01:41:49;99055.97;;;5.63;100.00
41886;BME280;27567;43.084;25.616;2022-10-16T01:44:36;99048.72;;;5.55;100.00
41886;BME280;27567;43.084;25.616;2022-10-16T01:47:25;99052.53;;;5.53;100.00
41886;BME280;27567;43.084;25.616;2022-10-16T01:50:12;99057.06;;;5.42;100.00
41886;BME280;27567;43.084;25.616;2022-10-16T01:52:58;99051.22;;;5.39;100.00
41886;BME280;27567;43.084;25.616;2022-10-16T01:55:46;99054.78;;;5.30;100.00
41886;BME280;27567;43.084;25.616;2022-10-16T01:58:35;99055.44;;;5.32;100.00
41886;BME280;27567;43.084;25.616;2022-10-16T02:01:23;99058.03;;;5.23;100.00
41886;BME280;27567;43.084;25.616;2022-10-16T02:04:15;99067.41;;;5.28;100.00
41886;BME280;27567;43.084;25.616;2022-10-16T02:07:00;99061.91;;;5.29;100.00
41886;BME280;27567;43.084;25.616;2022-10-16T02:09:45;99060.94;;;5.30;100.00
41886;BME280;27567;43.084;25.616;2022-10-16T02:12:33;99062.78;;;5.30;100.00
41886;BME280;27567;43.084;25.616;2022-10-16T02:15:19;99067.13;;;5.21;100.00
41886;BME280;27567;43.084;25.616;2022-10-16T02:18:04;99068.13;;;5.20;100.00
41886;BME280;27567;43.084;25.616;2022-10-16T02:21:21;99073.31;;;5.21;100.00
41886;BME280;27567;43.084;25.616;2022-10-16T02:30:20;99070.72;;;5.11;100.00
41886;BME280;27567;43.084;25.616;2022-10-16T02:33:07;99075.63;;;5.06;100.00
41886;BME280;27567;43.084;25.616;2022-10-16T02:35:54;99074.47;;;5.09;100.00
41886;BME280;27567;43.084;25.616;2022-10-16T02:38:39;99074.47;;;5.09;100.00
41886;BME280;27567;43.084;25.616;2022-10-16T02:41:24;99089.72;;;5.07;100.00
41886;BME280;27567;43.084;25.616;2022-10-16T02:44:10;99077.28;;;5.07;100.00
41886;BME280;27567;43.084;25.616;2022-10-16T02:46:54;99079.41;;;5.04;100.00
41886;BME280;27567;43.084;25.616;2022-10-16T02:49:37;99079.72;;;5.01;100.00
41886;BME280;27567;43.084;25.616;2022-10-16T02:52:21;99087.69;;;5.01;100.00
41886;BME280;27567;43.084;25.616;2022-10-16T02:55:05;99087.00;;;4.99;100.00
41886;BME280;27567;43.084;25.616;2022-10-16T02:57:49;99093.13;;;4.99;100.00
41886;BME280;27567;43.084;25.616;2022-10-16T03:00:33;99099.59;;;4.96;100.00
41886;BME280;27567;43.084;25.616;2022-10-16T03:03:17;99101.72;;;4.93;100.00
41886;BME280;27567;43.084;25.616;2022-10-16T03:06:01;99103.13;;;4.87;100.00
41886;BME280;27567;43.084;25.616;2022-10-16T03:08:46;99099.63;;;4.87;100.00
41886;BME280;27567;43.084;25.616;2022-10-16T03:11:30;99092.06;;;4.82;100.00
41886;BME280;27567;43.084;25.616;2022-10-16T03:14:14;99096.84;;;4.78;100.00
41886;BME280;27567;43.084;25.616;2022-10-16T03:16:58;99096.84;;;4.78;100.00
41886;BME280;27567;43.084;25.616;2022-10-16T03:19:42;99102.91;;;4.71;100.00
41886;BME280;27567;43.084;25.616;2022-10-16T03:22:26;99106.25;;;4.73;100.00
41886;BME280;27567;43.084;25.616;2022-10-16T03:25:13;99116.91;;;4.63;100.00
41886;BME280;27567;43.084;25.616;2022-10-16T03:28:00;99114.94;;;4.65;100.00
41886;BME280;27567;43.084;25.616;2022-10-16T03:30:44;99115.97;;;4.54;100.00
41886;BME280;27567;43.084;25.616;2022-10-16T03:33:28;99107.59;;;4.39;100.00
41886;BME280;27567;43.084;25.616;2022-10-16T03:36:12;99111.66;;;4.33;100.00
41886;BME280;27567;43.084;25.616;2022-10-16T03:38:56;99113.50;;;4.23;100.00
41886;BME280;27567;43.084;25.616;2022-10-16T03:41:40;99116.28;;;4.31;100.00
41886;BME280;27567;43.084;25.616;2022-10-16T03:44:24;99115.97;;;4.34;100.00
41886;BME280;27567;43.084;25.616;2022-10-16T03:47:08;99116.81;;;4.35;100.00
41886;BME280;27567;43.084;25.616;2022-10-16T03:49:52;99126.75;;;4.33;100.00
41886;BME280;27567;43.084;25.616;2022-10-16T03:52:36;99133.03;;;4.32;100.00
41886;BME280;27567;43.084;25.616;2022-10-16T03:55:21;99129.13;;;4.36;100.00
41886;BME280;27567;43.084;25.616;2022-10-16T03:58:05;99126.47;;;4.36;100.00
41886;BME280;27567;43.084;25.616;2022-10-16T04:00:49;99131.34;;;4.41;100.00
41886;BME280;27567;43.084;25.616;2022-10-16T04:03:33;99130.38;;;4.32;100.00
41886;BME280;27567;43.084;25.616;2022-10-16T04:06:17;99124.78;;;4.35;100.00
41886;BME280;27567;43.084;25.616;2022-10-16T04:09:02;99124.22;;;4.41;100.00
41886;BME280;27567;43.084;25.616;2022-10-16T04:11:46;99124.50;;;4.38;100.00
41886;BME280;27567;43.084;25.616;2022-10-16T04:14:30;99122.84;;;4.27;100.00
41886;BME280;27567;43.084;25.616;2022-10-16T04:17:14;99122.69;;;4.29;100.00
41886;BME280;27567;43.084;25.616;2022-10-16T04:19:58;99118.94;;;4.21;100.00
41886;BME280;27567;43.084;25.616;2022-10-16T04:22:42;99110.00;;;4.13;100.00
41886;BME280;27567;43.084;25.616;2022-10-16T04:25:26;99117.69;;;4.16;100.00
41886;BME280;27567;43.084;25.616;2022-10-16T04:28:10;99126.91;;;4.02;100.00
41886;BME280;27567;43.084;25.616;2022-10-16T04:30:54;99123.56;;;4.00;100.00
41886;BME280;27567;43.084;25.616;2022-10-16T04:33:38;99119.91;;;4.01;100.00
41886;BME280;27567;43.084;25.616;2022-10-16T04:36:25;99135.84;;;4.01;100.00
41886;BME280;27567;43.084;25.616;2022-10-16T04:39:09;99144.38;;;4.04;100.00
41886;BME280;27567;43.084;25.616;2022-10-16T04:41:53;99138.91;;;4.06;100.00
41886;BME280;27567;43.084;25.616;2022-10-16T04:44:37;99144.50;;;4.03;100.00
41886;BME280;27567;43.084;25.616;2022-10-16T04:47:21;99150.50;;;4.05;100.00
41886;BME280;27567;43.084;25.616;2022-10-16T04:50:05;99154.03;;;3.96;100.00
41886;BME280;27567;43.084;25.616;2022-10-16T04:52:49;99160.16;;;3.96;100.00
41886;BME280;27567;43.084;25.616;2022-10-16T04:55:34;99165.31;;;3.98;100.00
41886;BME280;27567;43.084;25.616;2022-10-16T04:58:18;99164.75;;;3.94;100.00
41886;BME280;27567;43.084;25.616;2022-10-16T05:01:02;99157.78;;;4.03;100.00
41886;BME280;27567;43.084;25.616;2022-10-16T05:03:46;99160.44;;;4.03;100.00
41886;BME280;27567;43.084;25.616;2022-10-16T05:06:30;99166.44;;;4.15;100.00
41886;BME280;27567;43.084;25.616;2022-10-16T05:09:14;99168.09;;;4.35;100.00
41886;BME280;27567;43.084;25.616;2022-10-16T05:11:58;99166.56;;;4.43;100.00
41886;BME280;27567;43.084;25.616;2022-10-16T05:14:42;99170.34;;;4.50;100.00
41886;BME280;27567;43.084;25.616;2022-10-16T05:17:26;99175.06;;;4.66;100.00
41886;BME280;27567;43.084;25.616;2022-10-16T05:20:13;99178.09;;;4.71;100.00
41886;BME280;27567;43.084;25.616;2022-10-16T05:22:57;99179.91;;;4.80;100.00
41886;BME280;27567;43.084;25.616;2022-10-16T05:25:41;99181.75;;;4.80;100.00
41886;BME280;27567;43.084;25.616;2022-10-16T05:28:26;99186.66;;;4.75;100.00
41886;BME280;27567;43.084;25.616;2022-10-16T05:31:11;99188.91;;;4.60;100.00
41886;BME280;27567;43.084;25.616;2022-10-16T05:34:01;99182.97;;;4.86;100.00
41886;BME280;27567;43.084;25.616;2022-10-16T05:36:45;99191.63;;;4.97;100.00
41886;BME280;27567;43.084;25.616;2022-10-16T05:39:29;99187.00;;;5.37;100.00
41886;BME280;27567;43.084;25.616;2022-10-16T05:42:13;99189.03;;;5.53;100.00
41886;BME280;27567;43.084;25.616;2022-10-16T05:44:58;99195.97;;;5.64;100.00
41886;BME280;27567;43.084;25.616;2022-10-16T05:47:43;99187.81;;;5.66;100.00
41886;BME280;27567;43.084;25.616;2022-10-16T05:50:27;99186.78;;;5.77;100.00
41886;BME280;27567;43.084;25.616;2022-10-16T05:53:11;99183.91;;;5.88;100.00
41886;BME280;27567;43.084;25.616;2022-10-16T05:55:56;99189.06;;;5.90;100.00
41886;BME280;27567;43.084;25.616;2022-10-16T05:58:40;99194.06;;;6.03;100.00
41886;BME280;27567;43.084;25.616;2022-10-16T06:01:25;99195.72;;;6.04;100.00
41886;BME280;27567;43.084;25.616;2022-10-16T06:04:09;99197.53;;;6.03;100.00
41886;BME280;27567;43.084;25.616;2022-10-16T06:06:54;99201.16;;;6.12;100.00
41886;BME280;27567;43.084;25.616;2022-10-16T06:09:47;99203.41;;;6.43;100.00
41886;BME280;27567;43.084;25.616;2022-10-16T06:12:31;99209.63;;;6.52;100.00
41886;BME280;27567;43.084;25.616;2022-10-16T06:15:16;99210.47;;;6.70;100.00
41886;BME280;27567;43.084;25.616;2022-10-16T06:18:00;99209.78;;;6.95;100.00
41886;BME280;27567;43.084;25.616;2022-10-16T06:20:45;99209.53;;;6.80;100.00
41886;BME280;27567;43.084;25.616;2022-10-16T06:23:29;99215.94;;;7.21;100.00
41886;BME280;27567;43.084;25.616;2022-10-16T06:26:19;99206.56;;;7.44;100.00
41886;BME280;27567;43.084;25.616;2022-10-16T06:29:03;99221.59;;;7.53;100.00
41886;BME280;27567;43.084;25.616;2022-10-16T06:31:48;99221.31;;;7.64;100.00
41886;BME280;27567;43.084;25.616;2022-10-16T06:34:32;99222.09;;;7.91;100.00
41886;BME280;27567;43.084;25.616;2022-10-16T06:37:17;99223.94;;;7.99;100.00
41886;BME280;27567;43.084;25.616;2022-10-16T06:40:01;99225.13;;;8.21;100.00
41886;BME280;27567;43.084;25.616;2022-10-16T06:42:49;99228.19;;;8.35;100.00
41886;BME280;27567;43.084;25.616;2022-10-16T06:45:34;99224.16;;;8.31;100.00
41886;BME280;27567;43.084;25.616;2022-10-16T06:48:22;99228.69;;;8.47;100.00
41886;BME280;27567;43.084;25.616;2022-10-16T06:51:10;99231.41;;;8.71;100.00
41886;BME280;27567;43.084;25.616;2022-10-16T06:53:55;99237.72;;;8.95;100.00
41886;BME280;27567;43.084;25.616;2022-10-16T06:56:43;99242.56;;;8.67;100.00
41886;BME280;27567;43.084;25.616;2022-10-16T06:59:27;99249.41;;;9.11;100.00
41886;BME280;27567;43.084;25.616;2022-10-16T07:02:12;99238.88;;;9.09;100.00
41886;BME280;27567;43.084;25.616;2022-10-16T07:04:56;99253.75;;;9.03;100.00
41886;BME280;27567;43.084;25.616;2022-10-16T07:07:44;99248.53;;;9.27;100.00
41886;BME280;27567;43.084;25.616;2022-10-16T07:10:32;99258.00;;;9.54;100.00
41886;BME280;27567;43.084;25.616;2022-10-16T07:13:16;99258.97;;;10.01;100.00
41886;BME280;27567;43.084;25.616;2022-10-16T07:16:08;99255.06;;;10.12;100.00
41886;BME280;27567;43.084;25.616;2022-10-16T07:19:00;99259.88;;;9.93;100.00
41886;BME280;27567;43.084;25.616;2022-10-16T07:21:45;99259.72;;;9.87;100.00
41886;BME280;27567;43.084;25.616;2022-10-16T07:24:30;99274.03;;;10.11;100.00
41886;BME280;27567;43.084;25.616;2022-10-16T07:27:16;99261.75;;;10.48;100.00
41886;BME280;27567;43.084;25.616;2022-10-16T07:30:01;99265.16;;;10.65;100.00
41886;BME280;27567;43.084;25.616;2022-10-16T07:32:48;99259.91;;;10.72;100.00
41886;BME280;27567;43.084;25.616;2022-10-16T07:35:32;99275.59;;;10.98;100.00
41886;BME280;27567;43.084;25.616;2022-10-16T07:38:17;99279.16;;;11.13;100.00
41886;BME280;27567;43.084;25.616;2022-10-16T07:41:04;99272.97;;;11.28;100.00
41886;BME280;27567;43.084;25.616;2022-10-16T07:43:50;99272.78;;;11.45;100.00
41886;BME280;27567;43.084;25.616;2022-10-16T07:46:35;99277.44;;;11.66;100.00
41886;BME280;27567;43.084;25.616;2022-10-16T07:49:20;99278.94;;;11.53;100.00
41886;BME280;27567;43.084;25.616;2022-10-16T07:52:04;99284.47;;;11.82;100.00
41886;BME280;27567;43.084;25.616;2022-10-16T07:54:48;99284.38;;;12.05;100.00
41886;BME280;27567;43.084;25.616;2022-10-16T07:57:32;99287.75;;;12.29;100.00
41886;BME280;27567;43.084;25.616;2022-10-16T08:00:16;99276.84;;;12.52;100.00
41886;BME280;27567;43.084;25.616;2022-10-16T08:03:00;99280.78;;;12.71;100.00
41886;BME280;27567;43.084;25.616;2022-10-16T08:05:44;99281.41;;;12.95;100.00
41886;BME280;27567;43.084;25.616;2022-10-16T08:08:31;99277.16;;;13.36;100.00
41886;BME280;27567;43.084;25.616;2022-10-16T08:11:15;99287.38;;;13.19;100.00
41886;BME280;27567;43.084;25.616;2022-10-16T08:14:00;99279.75;;;13.22;100.00
41886;BME280;27567;43.084;25.616;2022-10-16T08:16:44;99281.91;;;13.34;100.00
41886;BME280;27567;43.084;25.616;2022-10-16T08:19:28;99284.75;;;13.54;100.00
41886;BME280;27567;43.084;25.616;2022-10-16T08:22:15;99283.75;;;13.62;100.00
41886;BME280;27567;43.084;25.616;2022-10-16T08:24:59;99290.59;;;13.58;100.00
41886;BME280;27567;43.084;25.616;2022-10-16T08:27:43;99280.53;;;13.80;100.00
41886;BME280;27567;43.084;25.616;2022-10-16T08:30:28;99281.97;;;13.76;100.00
41886;BME280;27567;43.084;25.616;2022-10-16T08:33:12;99275.66;;;13.62;100.00
41886;BME280;27567;43.084;25.616;2022-10-16T08:36:03;99286.78;;;13.80;100.00
41886;BME280;27567;43.084;25.616;2022-10-16T08:38:48;99278.91;;;13.86;100.00
41886;BME280;27567;43.084;25.616;2022-10-16T08:45:02;99293.97;;;14.15;100.00
41886;BME280;27567;43.084;25.616;2022-10-16T08:50:56;99290.22;;;14.78;100.00
41886;BME280;27567;43.084;25.616;2022-10-16T08:56:40;99294.38;;;15.28;100.00
41886;BME280;27567;43.084;25.616;2022-10-16T08:59:24;99291.09;;;15.12;100.00
41886;BME280;27567;43.084;25.616;2022-10-16T09:02:41;99290.22;;;15.12;100.00
41886;BME280;27567;43.084;25.616;2022-10-16T09:20:32;99292.09;;;15.38;100.00
41886;BME280;27567;43.084;25.616;2022-10-16T09:23:28;99291.91;;;15.06;100.00
41886;BME280;27567;43.084;25.616;2022-10-16T09:26:14;99290.03;;;14.93;100.00
41886;BME280;27567;43.084;25.616;2022-10-16T09:28:59;99292.09;;;14.84;100.00
41886;BME280;27567;43.084;25.616;2022-10-16T09:31:43;99283.72;;;14.59;100.00
41886;BME280;27567;43.084;25.616;2022-10-16T09:34:32;99284.22;;;14.96;100.00
41886;BME280;27567;43.084;25.616;2022-10-16T09:37:19;99286.94;;;14.90;100.00
41886;BME280;27567;43.084;25.616;2022-10-16T09:40:04;99293.31;;;14.82;100.00
41886;BME280;27567;43.084;25.616;2022-10-16T09:42:48;99290.66;;;14.88;100.00
41886;BME280;27567;43.084;25.616;2022-10-16T09:45:32;99289.81;;;14.88;100.00
41886;BME280;27567;43.084;25.616;2022-10-16T09:48:18;99291.06;;;14.92;100.00
41886;BME280;27567;43.084;25.616;2022-10-16T09:51:06;99292.34;;;15.16;100.00
41886;BME280;27567;43.084;25.616;2022-10-16T09:53:57;99284.59;;;15.47;100.00
41886;BME280;27567;43.084;25.616;2022-10-16T09:56:42;99279.25;;;17.16;90.80
41886;BME280;27567;43.084;25.616;2022-10-16T09:59:31;99285.00;;;19.58;62.55
41886;BME280;27567;43.084;25.616;2022-10-16T10:02:18;99268.47;;;21.73;46.24
41886;BME280;27567;43.084;25.616;2022-10-16T10:05:05;99273.00;;;22.34;43.67
41886;BME280;27567;43.084;25.616;2022-10-16T10:08:02;99269.00;;;23.77;38.93
41886;BME280;27567;43.084;25.616;2022-10-16T10:10:50;99269.28;;;23.81;38.18
41886;BME280;27567;43.084;25.616;2022-10-16T10:13:34;99269.28;;;24.50;37.03
41886;BME280;27567;43.084;25.616;2022-10-16T10:16:24;99260.94;;;24.08;36.51
41886;BME280;27567;43.084;25.616;2022-10-16T10:19:13;99255.41;;;26.60;32.75
41886;BME280;27567;43.084;25.616;2022-10-16T10:21:57;99255.66;;;23.91;36.97
41886;BME280;27567;43.084;25.616;2022-10-16T10:24:41;99246.78;;;26.27;32.80
41886;BME280;27567;43.084;25.616;2022-10-16T10:27:34;99243.16;;;27.11;31.17
41886;BME280;27567;43.084;25.616;2022-10-16T10:30:44;99246.25;;;30.06;26.89
41886;BME280;27567;43.084;25.616;2022-10-16T10:36:38;99244.03;;;30.31;25.36
41886;BME280;27567;43.084;25.616;2022-10-16T10:39:36;99241.88;;;32.48;23.27
41886;BME280;27567;43.084;25.616;2022-10-16T10:42:36;99247.25;;;31.06;24.72
41886;BME280;27567;43.084;25.616;2022-10-16T10:45:46;99236.38;;;31.82;23.56
41886;BME280;27567;43.084;25.616;2022-10-16T11:01:09;99223.09;;;31.61;23.75
41886;BME280;27567;43.084;25.616;2022-10-16T11:07:07;99222.44;;;33.79;21.98
41886;BME280;27567;43.084;25.616;2022-10-16T11:10:20;99212.81;;;31.21;24.09
41886;BME280;27567;43.084;25.616;2022-10-16T11:13:33;99219.00;;;30.50;24.93
41886;BME280;27567;43.084;25.616;2022-10-16T11:16:26;99207.63;;;31.69;23.12
41886;BME280;27567;43.084;25.616;2022-10-16T11:19:25;99210.22;;;29.97;25.09
41886;BME280;27567;43.084;25.616;2022-10-16T11:22:19;99209.19;;;28.18;26.42
41886;BME280;27567;43.084;25.616;2022-10-16T11:28:37;99224.00;;;28.80;26.48
41886;BME280;27567;43.084;25.616;2022-10-16T11:31:43;99226.28;;;29.67;25.84
41886;BME280;27567;43.084;25.616;2022-10-16T11:34:40;99216.47;;;30.03;25.27
41886;BME280;27567;43.084;25.616;2022-10-16T11:37:39;99207.53;;;30.06;26.10
41886;BME280;27567;43.084;25.616;2022-10-16T11:43:13;99215.91;;;30.14;25.55
41886;BME280;27567;43.084;25.616;2022-10-16T11:46:08;99215.56;;;29.37;26.74
41886;BME280;27567;43.084;25.616;2022-10-16T11:49:20;99203.41;;;30.99;24.88
41886;BME280;27567;43.084;25.616;2022-10-16T11:55:34;99204.34;;;28.29;27.68
41886;BME280;27567;43.084;25.616;2022-10-16T11:58:24;99211.44;;;28.88;27.14
41886;BME280;27567;43.084;25.616;2022-10-16T12:07:40;99215.16;;;26.30;30.61
41886;BME280;27567;43.084;25.616;2022-10-16T12:10:29;99209.72;;;28.20;28.11
41886;BME280;27567;43.084;25.616;2022-10-16T12:13:37;99215.88;;;26.85;30.10
41886;BME280;27567;43.084;25.616;2022-10-16T12:16:22;99209.97;;;27.03;30.03
41886;BME280;27567;43.084;25.616;2022-10-16T12:19:15;99216.38;;;26.93;29.50
41886;BME280;27567;43.084;25.616;2022-10-16T12:22:02;99207.13;;;28.05;28.41
41886;BME280;27567;43.084;25.616;2022-10-16T12:24:51;99220.41;;;26.31;30.40
41886;BME280;27567;43.084;25.616;2022-10-16T12:27:36;99209.00;;;27.42;29.28
41886;BME280;27567;43.084;25.616;2022-10-16T12:30:23;99209.69;;;29.25;26.67
41886;BME280;27567;43.084;25.616;2022-10-16T12:36:15;99213.34;;;26.94;29.56
41886;BME280;27567;43.084;25.616;2022-10-16T12:39:00;99217.16;;;27.77;28.17
41886;BME280;27567;43.084;25.616;2022-10-16T12:41:44;99217.47;;;30.07;25.61
41886;BME280;27567;43.084;25.616;2022-10-16T12:44:33;99211.84;;;30.71;24.98
41886;BME280;27567;43.084;25.616;2022-10-16T12:47:37;99214.34;;;29.10;26.08
41886;BME280;27567;43.084;25.616;2022-10-16T12:50:37;99218.09;;;29.62;25.92
41886;BME280;27567;43.084;25.616;2022-10-16T12:53:24;99220.56;;;29.77;25.53
41886;BME280;27567;43.084;25.616;2022-10-16T12:56:23;99220.00;;;29.19;26.03
41886;BME280;27567;43.084;25.616;2022-10-16T12:59:17;99218.16;;;30.49;25.05
41886;BME280;27567;43.084;25.616;2022-10-16T13:02:39;99220.25;;;29.51;25.34
41886;BME280;27567;43.084;25.616;2022-10-16T13:15:19;99232.97;;;22.17;37.59
41886;BME280;27567;43.084;25.616;2022-10-16T13:18:24;99241.72;;;20.21;48.01
41886;BME280;27567;43.084;25.616;2022-10-16T13:30:42;99247.81;;;17.33;75.08
41886;BME280;27567;43.084;25.616;2022-10-16T13:33:36;99251.88;;;16.98;80.18
41886;BME280;27567;43.084;25.616;2022-10-16T13:36:27;99251.91;;;16.92;80.52
41886;BME280;27567;43.084;25.616;2022-10-16T13:39:41;99247.09;;;16.94;81.46
41886;BME280;27567;43.084;25.616;2022-10-16T13:42:27;99246.38;;;17.05;80.11
41886;BME280;27567;43.084;25.616;2022-10-16T13:45:23;99247.28;;;16.92;82.24
41886;BME280;27567;43.084;25.616;2022-10-16T13:48:10;99258.59;;;16.57;85.20
41886;BME280;27567;43.084;25.616;2022-10-16T13:51:22;99265.00;;;16.31;88.51
41886;BME280;27567;43.084;25.616;2022-10-16T13:54:09;99261.66;;;16.35;89.15
41886;BME280;27567;43.084;25.616;2022-10-16T13:56:54;99267.88;;;16.36;88.38
41886;BME280;27567;43.084;25.616;2022-10-16T13:59:42;99268.13;;;16.28;90.45
41886;BME280;27567;43.084;25.616;2022-10-16T14:02:30;99259.75;;;15.97;92.64
41886;BME280;27567;43.084;25.616;2022-10-16T14:05:18;99258.13;;;15.89;95.12
41886;BME280;27567;43.084;25.616;2022-10-16T14:08:03;99255.16;;;16.04;94.43
41886;BME280;27567;43.084;25.616;2022-10-16T14:10:52;99259.53;;;15.99;92.54
41886;BME280;27567;43.084;25.616;2022-10-16T14:13:40;99257.06;;;15.84;95.82
41886;BME280;27567;43.084;25.616;2022-10-16T14:16:30;99261.63;;;15.83;98.70
41886;BME280;27567;43.084;25.616;2022-10-16T14:19:22;99258.97;;;15.76;100.00
41886;BME280;27567;43.084;25.616;2022-10-16T14:22:35;99259.19;;;15.75;93.52
41886;BME280;27567;43.084;25.616;2022-10-16T14:28:47;99265.22;;;15.63;97.26
41886;BME280;27567;43.084;25.616;2022-10-16T14:34:29;99274.81;;;15.53;91.48
41886;BME280;27567;43.084;25.616;2022-10-16T14:37:27;99269.47;;;15.39;93.78
41886;BME280;27567;43.084;25.616;2022-10-16T14:40:15;99264.06;;;15.26;94.75
41886;BME280;27567;43.084;25.616;2022-10-16T14:43:01;99278.41;;;15.26;97.49
41886;BME280;27567;43.084;25.616;2022-10-16T14:45:51;99267.41;;;14.94;100.00
41886;BME280;27567;43.084;25.616;2022-10-16T14:48:41;99271.34;;;14.92;100.00
41886;BME280;27567;43.084;25.616;2022-10-16T14:51:26;99262.41;;;14.84;100.00
41886;BME280;27567;43.084;25.616;2022-10-16T14:53:52;99265.09;;;14.78;100.00
41886;BME280;27567;43.084;25.616;2022-10-16T14:56:26;99273.19;;;14.71;100.00
41886;BME280;27567;43.084;25.616;2022-10-16T14:58:55;99268.63;;;14.71;100.00
41886;BME280;27567;43.084;25.616;2022-10-16T15:01:21;99280.22;;;14.72;100.00
41886;BME280;27567;43.084;25.616;2022-10-16T15:03:47;99279.56;;;14.56;100.00
41886;BME280;27567;43.084;25.616;2022-10-16T15:06:15;99285.53;;;14.45;100.00
41886;BME280;27567;43.084;25.616;2022-10-16T15:08:41;99286.56;;;14.31;100.00
41886;BME280;27567;43.084;25.616;2022-10-16T15:11:16;99283.78;;;14.10;100.00
41886;BME280;27567;43.084;25.616;2022-10-16T15:13:43;99295.34;;;13.97;100.00
41886;BME280;27567;43.084;25.616;2022-10-16T15:16:15;99289.25;;;13.82;100.00
41886;BME280;27567;43.084;25.616;2022-10-16T15:18:42;99302.50;;;13.77;100.00
41886;BME280;27567;43.084;25.616;2022-10-16T15:21:20;99291.41;;;13.58;100.00
41886;BME280;27567;43.084;25.616;2022-10-16T15:23:49;99300.66;;;13.49;100.00
41886;BME280;27567;43.084;25.616;2022-10-16T15:26:23;99293.81;;;13.46;100.00
41886;BME280;27567;43.084;25.616;2022-10-16T15:28:49;99301.19;;;13.37;100.00
41886;BME280;27567;43.084;25.616;2022-10-16T15:31:14;99304.88;;;13.30;100.00
41886;BME280;27567;43.084;25.616;2022-10-16T15:33:40;99309.34;;;13.22;100.00
41886;BME280;27567;43.084;25.616;2022-10-16T15:36:06;99314.22;;;13.12;100.00
41886;BME280;27567;43.084;25.616;2022-10-16T15:38:33;99319.13;;;13.02;100.00
41886;BME280;27567;43.084;25.616;2022-10-16T15:41:02;99328.34;;;12.92;100.00
41886;BME280;27567;43.084;25.616;2022-10-16T15:43:28;99325.88;;;12.91;100.00
41886;BME280;27567;43.084;25.616;2022-10-16T15:46:03;99328.19;;;12.94;100.00
41886;BME280;27567;43.084;25.616;2022-10-16T15:48:30;99330.94;;;12.79;100.00
41886;BME280;27567;43.084;25.616;2022-10-16T15:51:05;99329.56;;;12.68;100.00
41886;BME280;27567;43.084;25.616;2022-10-16T15:53:31;99339.88;;;12.65;100.00
41886;BME280;27567;43.084;25.616;2022-10-16T15:55:57;99340.31;;;12.46;100.00
41886;BME280;27567;43.084;25.616;2022-10-16T15:58:22;99338.06;;;12.50;100.00
41886;BME280;27567;43.084;25.616;2022-10-16T16:00:56;99354.34;;;12.27;100.00
41886;BME280;27567;43.084;25.616;2022-10-16T16:03:21;99360.34;;;12.29;100.00
41886;BME280;27567;43.084;25.616;2022-10-16T16:05:47;99351.56;;;12.20;100.00